sensor_id;sensor_type;location;lat;lon;timestamp;temperature;humidity
23813;DHT22;12087;45.190;5.688;2023-01-15T00:03:27;8.30;99.90
23813;DHT22;12087;45.190;5.688;2023-01-15T00:08:50;8.30;99.90
23813;DHT22;12087;45.190;5.688;2023-01-15T00:14:13;8.30;99.90
23813;DHT22;12087;45.190;5.688;2023-01-15T00:19:36;8.20;99.90
23813;DHT22;12087;45.190;5.688;2023-01-15T00:24:59;8.30;99.90
23813;DHT22;12087;45.190;5.688;2023-01-15T00:30:39;8.20;99.90
23813;DHT22;12087;45.190;5.688;2023-01-15T00:36:04;8.20;99.90
23813;DHT22;12087;45.190;5.688;2023-01-15T00:41:27;8.20;99.90
23813;DHT22;12087;45.190;5.688;2023-01-15T00:46:49;8.20;99.90
23813;DHT22;12087;45.190;5.688;2023-01-15T00:52:13;8.20;99.90
23813;DHT22;12087;45.190;5.688;2023-01-15T00:57:35;8.20;99.90
23813;DHT22;12087;45.190;5.688;2023-01-15T01:02:57;8.20;99.90
23813;DHT22;12087;45.190;5.688;2023-01-15T01:08:21;8.20;99.90
23813;DHT22;12087;45.190;5.688;2023-01-15T01:13:44;8.20;99.90
23813;DHT22;12087;45.190;5.688;2023-01-15T01:19:08;8.20;99.90
23813;DHT22;12087;45.190;5.688;2023-01-15T01:24:32;8.10;99.90
23813;DHT22;12087;45.190;5.688;2023-01-15T01:29:55;8.10;99.90
23813;DHT22;12087;45.190;5.688;2023-01-15T01:35:17;8.10;99.90
23813;DHT22;12087;45.190;5.688;2023-01-15T01:40:42;8.10;99.90
23813;DHT22;12087;45.190;5.688;2023-01-15T01:46:04;8.10;99.90
23813;DHT22;12087;45.190;5.688;2023-01-15T01:51:33;8.10;99.90
23813;DHT22;12087;45.190;5.688;2023-01-15T01:56:57;8.10;99.90
23813;DHT22;12087;45.190;5.688;2023-01-15T02:02:21;8.10;99.90
23813;DHT22;12087;45.190;5.688;2023-01-15T02:07:43;8.10;99.90
23813;DHT22;12087;45.190;5.688;2023-01-15T02:13:11;8.10;99.90
23813;DHT22;12087;45.190;5.688;2023-01-15T02:18:41;8.00;99.90
23813;DHT22;12087;45.190;5.688;2023-01-15T02:24:08;8.00;99.90
23813;DHT22;12087;45.190;5.688;2023-01-15T02:29:53;8.00;99.90
23813;DHT22;12087;45.190;5.688;2023-01-15T02:35:19;8.00;99.90
23813;DHT22;12087;45.190;5.688;2023-01-15T02:40:42;8.00;99.90
23813;DHT22;12087;45.190;5.688;2023-01-15T02:46:07;8.00;99.90
23813;DHT22;12087;45.190;5.688;2023-01-15T02:51:35;8.00;99.90
23813;DHT22;12087;45.190;5.688;2023-01-15T02:56:59;8.00;99.90
23813;DHT22;12087;45.190;5.688;2023-01-15T03:02:28;8.00;99.90
23813;DHT22;12087;45.190;5.688;2023-01-15T03:07:53;8.10;99.90
23813;DHT22;12087;45.190;5.688;2023-01-15T03:13:22;8.00;99.90
23813;DHT22;12087;45.190;5.688;2023-01-15T03:18:50;8.00;99.90
23813;DHT22;12087;45.190;5.688;2023-01-15T03:24:18;8.10;99.90
23813;DHT22;12087;45.190;5.688;2023-01-15T03:29:45;8.20;99.90
23813;DHT22;12087;45.190;5.688;2023-01-15T03:35:41;8.20;99.90
23813;DHT22;12087;45.190;5.688;2023-01-15T03:41:13;8.30;99.90
23813;DHT22;12087;45.190;5.688;2023-01-15T03:46:48;8.30;99.90
23813;DHT22;12087;45.190;5.688;2023-01-15T03:52:15;8.40;99.90
23813;DHT22;12087;45.190;5.688;2023-01-15T03:57:42;8.40;99.90
23813;DHT22;12087;45.190;5.688;2023-01-15T04:03:09;8.40;99.90
23813;DHT22;12087;45.190;5.688;2023-01-15T04:08:36;8.50;99.90
23813;DHT22;12087;45.190;5.688;2023-01-15T04:13:59;8.50;99.90
23813;DHT22;12087;45.190;5.688;2023-01-15T04:19:21;8.50;99.90
23813;DHT22;12087;45.190;5.688;2023-01-15T04:24:45;8.50;99.90
23813;DHT22;12087;45.190;5.688;2023-01-15T04:30:08;8.50;99.90
23813;DHT22;12087;45.190;5.688;2023-01-15T04:35:31;8.60;99.90
23813;DHT22;12087;45.190;5.688;2023-01-15T04:40:59;8.60;99.90
23813;DHT22;12087;45.190;5.688;2023-01-15T04:46:40;8.60;99.90
23813;DHT22;12087;45.190;5.688;2023-01-15T04:52:03;8.50;99.90
23813;DHT22;12087;45.190;5.688;2023-01-15T04:57:27;8.50;99.90
23813;DHT22;12087;45.190;5.688;2023-01-15T05:02:49;8.40;99.90
23813;DHT22;12087;45.190;5.688;2023-01-15T05:08:12;8.20;99.90
23813;DHT22;12087;45.190;5.688;2023-01-15T05:13:35;8.10;99.90
23813;DHT22;12087;45.190;5.688;2023-01-15T05:18:59;8.10;99.90
23813;DHT22;12087;45.190;5.688;2023-01-15T05:24:22;8.00;99.90
23813;DHT22;12087;45.190;5.688;2023-01-15T05:29:45;8.00;99.90
23813;DHT22;12087;45.190;5.688;2023-01-15T05:35:08;7.90;99.90
23813;DHT22;12087;45.190;5.688;2023-01-15T05:40:31;7.90;99.90
23813;DHT22;12087;45.190;5.688;2023-01-15T05:45:54;7.80;99.90
23813;DHT22;12087;45.190;5.688;2023-01-15T05:51:16;7.80;99.90
23813;DHT22;12087;45.190;5.688;2023-01-15T05:56:39;7.80;99.90
23813;DHT22;12087;45.190;5.688;2023-01-15T06:02:03;7.80;99.90
23813;DHT22;12087;45.190;5.688;2023-01-15T06:07:25;7.70;99.90
23813;DHT22;12087;45.190;5.688;2023-01-15T06:12:47;7.70;99.90
23813;DHT22;12087;45.190;5.688;2023-01-15T06:18:11;7.60;99.90
23813;DHT22;12087;45.190;5.688;2023-01-15T06:23:34;7.60;99.90
23813;DHT22;12087;45.190;5.688;2023-01-15T06:28:57;7.40;99.90
23813;DHT22;12087;45.190;5.688;2023-01-15T06:34:20;7.40;99.90
23813;DHT22;12087;45.190;5.688;2023-01-15T06:39:43;7.40;99.90
23813;DHT22;12087;45.190;5.688;2023-01-15T06:45:07;7.40;99.90
23813;DHT22;12087;45.190;5.688;2023-01-15T06:50:48;7.40;99.90
23813;DHT22;12087;45.190;5.688;2023-01-15T06:56:10;7.40;99.90
23813;DHT22;12087;45.190;5.688;2023-01-15T07:01:34;7.40;99.90
23813;DHT22;12087;45.190;5.688;2023-01-15T07:06:57;7.40;99.90
23813;DHT22;12087;45.190;5.688;2023-01-15T07:12:20;7.40;99.90
23813;DHT22;12087;45.190;5.688;2023-01-15T07:17:42;7.40;99.90
23813;DHT22;12087;45.190;5.688;2023-01-15T07:23:06;7.40;99.90
23813;DHT22;12087;45.190;5.688;2023-01-15T07:28:28;7.50;99.90
23813;DHT22;12087;45.190;5.688;2023-01-15T07:33:50;7.50;99.90
23813;DHT22;12087;45.190;5.688;2023-01-15T07:39:14;7.50;99.90
23813;DHT22;12087;45.190;5.688;2023-01-15T07:44:36;7.50;99.90
23813;DHT22;12087;45.190;5.688;2023-01-15T07:50:18;7.50;99.90
23813;DHT22;12087;45.190;5.688;2023-01-15T07:55:42;7.50;99.90
23813;DHT22;12087;45.190;5.688;2023-01-15T08:01:04;7.50;99.90
23813;DHT22;12087;45.190;5.688;2023-01-15T08:06:26;7.40;99.90
23813;DHT22;12087;45.190;5.688;2023-01-15T08:11:50;7.50;99.90
23813;DHT22;12087;45.190;5.688;2023-01-15T08:17:31;7.40;99.90
23813;DHT22;12087;45.190;5.688;2023-01-15T08:22:54;7.50;99.90
23813;DHT22;12087;45.190;5.688;2023-01-15T08:28:17;7.50;99.90
23813;DHT22;12087;45.190;5.688;2023-01-15T08:33:40;7.50;99.90
23813;DHT22;12087;45.190;5.688;2023-01-15T08:39:02;7.50;99.90
23813;DHT22;12087;45.190;5.688;2023-01-15T08:44:26;7.60;99.90
23813;DHT22;12087;45.190;5.688;2023-01-15T08:49:48;7.60;99.90
23813;DHT22;12087;45.190;5.688;2023-01-15T08:55:10;7.70;99.90
23813;DHT22;12087;45.190;5.688;2023-01-15T09:00:34;7.80;99.90
23813;DHT22;12087;45.190;5.688;2023-01-15T09:05:57;7.90;99.90
23813;DHT22;12087;45.190;5.688;2023-01-15T09:11:20;7.90;99.90
23813;DHT22;12087;45.190;5.688;2023-01-15T09:16:43;7.90;99.90
23813;DHT22;12087;45.190;5.688;2023-01-15T09:22:05;7.90;99.90
23813;DHT22;12087;45.190;5.688;2023-01-15T09:27:28;8.00;99.90
23813;DHT22;12087;45.190;5.688;2023-01-15T09:32:51;8.10;99.90
23813;DHT22;12087;45.190;5.688;2023-01-15T09:38:16;8.20;99.90
23813;DHT22;12087;45.190;5.688;2023-01-15T09:44:12;8.30;99.90
23813;DHT22;12087;45.190;5.688;2023-01-15T09:49:52;8.60;99.90
23813;DHT22;12087;45.190;5.688;2023-01-15T09:55:21;8.80;99.90
23813;DHT22;12087;45.190;5.688;2023-01-15T10:00:47;8.90;99.90
23813;DHT22;12087;45.190;5.688;2023-01-15T10:06:18;8.80;99.90
23813;DHT22;12087;45.190;5.688;2023-01-15T10:11:45;8.80;99.90
23813;DHT22;12087;45.190;5.688;2023-01-15T10:17:27;8.70;99.90
23813;DHT22;12087;45.190;5.688;2023-01-15T10:23:04;8.60;99.90
23813;DHT22;12087;45.190;5.688;2023-01-15T10:28:39;8.60;99.90
23813;DHT22;12087;45.190;5.688;2023-01-15T10:40:19;8.60;99.90
23813;DHT22;12087;45.190;5.688;2023-01-15T10:45:47;8.60;99.90
23813;DHT22;12087;45.190;5.688;2023-01-15T10:51:13;8.60;99.90
23813;DHT22;12087;45.190;5.688;2023-01-15T10:56:42;8.50;99.90
23813;DHT22;12087;45.190;5.688;2023-01-15T11:02:22;8.50;99.90
23813;DHT22;12087;45.190;5.688;2023-01-15T11:07:47;8.40;99.90
23813;DHT22;12087;45.190;5.688;2023-01-15T11:13:20;8.40;99.90
23813;DHT22;12087;45.190;5.688;2023-01-15T11:19:02;8.30;99.90
23813;DHT22;12087;45.190;5.688;2023-01-15T11:24:47;8.30;99.90
23813;DHT22;12087;45.190;5.688;2023-01-15T11:30:27;8.20;99.90
23813;DHT22;12087;45.190;5.688;2023-01-15T11:35:51;8.20;99.90
23813;DHT22;12087;45.190;5.688;2023-01-15T11:41:20;8.10;99.90
23813;DHT22;12087;45.190;5.688;2023-01-15T11:46:46;8.10;99.90
23813;DHT22;12087;45.190;5.688;2023-01-15T11:52:26;8.10;99.90
23813;DHT22;12087;45.190;5.688;2023-01-15T11:57:48;8.00;99.90
23813;DHT22;12087;45.190;5.688;2023-01-15T12:03:15;8.00;99.90
23813;DHT22;12087;45.190;5.688;2023-01-15T12:08:47;8.00;99.90
23813;DHT22;12087;45.190;5.688;2023-01-15T12:14:47;8.00;99.90
23813;DHT22;12087;45.190;5.688;2023-01-15T12:20:22;8.00;99.90
23813;DHT22;12087;45.190;5.688;2023-01-15T12:25:52;8.00;99.90
23813;DHT22;12087;45.190;5.688;2023-01-15T12:31:23;7.90;99.90
23813;DHT22;12087;45.190;5.688;2023-01-15T12:36:50;7.90;99.90
23813;DHT22;12087;45.190;5.688;2023-01-15T12:42:17;7.90;99.90
23813;DHT22;12087;45.190;5.688;2023-01-15T12:48:04;7.80;99.90
23813;DHT22;12087;45.190;5.688;2023-01-15T12:53:38;7.70;99.90
23813;DHT22;12087;45.190;5.688;2023-01-15T12:59:06;7.60;99.90
23813;DHT22;12087;45.190;5.688;2023-01-15T13:04:41;7.40;99.90
23813;DHT22;12087;45.190;5.688;2023-01-15T13:10:12;7.30;99.90
23813;DHT22;12087;45.190;5.688;2023-01-15T13:15:39;7.10;99.90
23813;DHT22;12087;45.190;5.688;2023-01-15T13:21:10;7.00;99.90
23813;DHT22;12087;45.190;5.688;2023-01-15T13:27:02;6.90;99.90
23813;DHT22;12087;45.190;5.688;2023-01-15T13:32:28;6.80;99.90
23813;DHT22;12087;45.190;5.688;2023-01-15T13:37:54;6.70;99.90
23813;DHT22;12087;45.190;5.688;2023-01-15T13:43:29;6.70;99.90
23813;DHT22;12087;45.190;5.688;2023-01-15T13:48:53;6.60;99.90
23813;DHT22;12087;45.190;5.688;2023-01-15T13:54:18;6.60;99.90
23813;DHT22;12087;45.190;5.688;2023-01-15T13:59:45;6.70;99.90
23813;DHT22;12087;45.190;5.688;2023-01-15T14:05:26;6.70;99.90
23813;DHT22;12087;45.190;5.688;2023-01-15T14:10:49;6.60;99.90
23813;DHT22;12087;45.190;5.688;2023-01-15T14:16:26;6.60;99.90
23813;DHT22;12087;45.190;5.688;2023-01-15T14:22:04;6.60;99.90
23813;DHT22;12087;45.190;5.688;2023-01-15T14:27:45;6.60;99.90
23813;DHT22;12087;45.190;5.688;2023-01-15T14:33:20;6.60;99.90
23813;DHT22;12087;45.190;5.688;2023-01-15T14:38:49;6.60;99.90
23813;DHT22;12087;45.190;5.688;2023-01-15T14:44:12;6.70;99.90
23813;DHT22;12087;45.190;5.688;2023-01-15T14:49:44;6.70;99.90
23813;DHT22;12087;45.190;5.688;2023-01-15T14:55:11;6.70;99.90
23813;DHT22;12087;45.190;5.688;2023-01-15T15:00:36;6.80;99.90
23813;DHT22;12087;45.190;5.688;2023-01-15T15:06:01;6.70;99.90
23813;DHT22;12087;45.190;5.688;2023-01-15T15:11:34;6.80;99.90
23813;DHT22;12087;45.190;5.688;2023-01-15T15:17:19;6.80;99.90
23813;DHT22;12087;45.190;5.688;2023-01-15T15:22:47;6.80;99.90
23813;DHT22;12087;45.190;5.688;2023-01-15T15:28:11;6.80;99.90
23813;DHT22;12087;45.190;5.688;2023-01-15T15:33:37;6.80;99.90
23813;DHT22;12087;45.190;5.688;2023-01-15T15:39:12;6.80;99.90
23813;DHT22;12087;45.190;5.688;2023-01-15T15:44:41;6.80;99.90
23813;DHT22;12087;45.190;5.688;2023-01-15T15:50:24;6.80;99.90
23813;DHT22;12087;45.190;5.688;2023-01-15T15:55:48;6.80;99.90
23813;DHT22;12087;45.190;5.688;2023-01-15T16:01:12;6.70;99.90
23813;DHT22;12087;45.190;5.688;2023-01-15T16:06:35;6.70;99.90
23813;DHT22;12087;45.190;5.688;2023-01-15T16:11:58;6.70;99.90
23813;DHT22;12087;45.190;5.688;2023-01-15T16:17:27;6.70;99.90
23813;DHT22;12087;45.190;5.688;2023-01-15T16:22:54;6.60;99.90
23813;DHT22;12087;45.190;5.688;2023-01-15T16:28:24;6.50;99.90
23813;DHT22;12087;45.190;5.688;2023-01-15T16:33:52;6.50;99.90
23813;DHT22;12087;45.190;5.688;2023-01-15T16:39:21;6.40;99.90
23813;DHT22;12087;45.190;5.688;2023-01-15T16:44:51;6.30;99.90
23813;DHT22;12087;45.190;5.688;2023-01-15T16:50:27;6.20;99.90
23813;DHT22;12087;45.190;5.688;2023-01-15T16:55:50;6.10;99.90
23813;DHT22;12087;45.190;5.688;2023-01-15T17:01:37;6.00;99.90
23813;DHT22;12087;45.190;5.688;2023-01-15T17:07:03;5.90;99.90
23813;DHT22;12087;45.190;5.688;2023-01-15T17:12:28;5.90;99.90
23813;DHT22;12087;45.190;5.688;2023-01-15T17:17:54;5.80;99.90
23813;DHT22;12087;45.190;5.688;2023-01-15T17:23:18;5.80;99.90
23813;DHT22;12087;45.190;5.688;2023-01-15T17:28:42;5.80;99.90
23813;DHT22;12087;45.190;5.688;2023-01-15T17:34:06;5.70;99.90
23813;DHT22;12087;45.190;5.688;2023-01-15T17:39:28;5.60;99.90
23813;DHT22;12087;45.190;5.688;2023-01-15T17:44:51;5.50;99.90
23813;DHT22;12087;45.190;5.688;2023-01-15T17:50:15;5.30;99.90
23813;DHT22;12087;45.190;5.688;2023-01-15T17:55:37;5.30;99.90
23813;DHT22;12087;45.190;5.688;2023-01-15T18:01:19;5.10;99.90
23813;DHT22;12087;45.190;5.688;2023-01-15T18:07:01;5.10;99.90
23813;DHT22;12087;45.190;5.688;2023-01-15T18:12:23;5.10;99.90
23813;DHT22;12087;45.190;5.688;2023-01-15T18:17:46;5.00;99.90
23813;DHT22;12087;45.190;5.688;2023-01-15T18:23:10;5.00;99.90
23813;DHT22;12087;45.190;5.688;2023-01-15T18:28:32;5.10;99.90
23813;DHT22;12087;45.190;5.688;2023-01-15T18:33:55;5.00;99.90
23813;DHT22;12087;45.190;5.688;2023-01-15T18:39:19;4.90;99.90
23813;DHT22;12087;45.190;5.688;2023-01-15T18:44:41;4.80;99.90
23813;DHT22;12087;45.190;5.688;2023-01-15T18:50:21;4.70;99.90
23813;DHT22;12087;45.190;5.688;2023-01-15T18:55:44;4.70;99.90
23813;DHT22;12087;45.190;5.688;2023-01-15T19:01:07;4.70;99.90
23813;DHT22;12087;45.190;5.688;2023-01-15T19:06:29;4.80;99.90
23813;DHT22;12087;45.190;5.688;2023-01-15T19:11:53;4.70;99.90
23813;DHT22;12087;45.190;5.688;2023-01-15T19:17:16;4.70;99.90
23813;DHT22;12087;45.190;5.688;2023-01-15T19:22:56;4.70;99.90
23813;DHT22;12087;45.190;5.688;2023-01-15T19:28:23;4.90;99.90
23813;DHT22;12087;45.190;5.688;2023-01-15T19:33:45;4.90;99.90
23813;DHT22;12087;45.190;5.688;2023-01-15T19:39:07;4.80;99.90
23813;DHT22;12087;45.190;5.688;2023-01-15T19:44:31;4.80;99.90
23813;DHT22;12087;45.190;5.688;2023-01-15T19:50:13;4.70;99.90
23813;DHT22;12087;45.190;5.688;2023-01-15T19:55:43;4.60;99.90
23813;DHT22;12087;45.190;5.688;2023-01-15T20:01:12;4.50;99.90
23813;DHT22;12087;45.190;5.688;2023-01-15T20:06:35;4.50;99.90
23813;DHT22;12087;45.190;5.688;2023-01-15T20:11:57;4.50;99.90
23813;DHT22;12087;45.190;5.688;2023-01-15T20:17:35;4.40;99.90
23813;DHT22;12087;45.190;5.688;2023-01-15T20:22:57;4.40;99.90
23813;DHT22;12087;45.190;5.688;2023-01-15T20:28:19;4.40;99.90
23813;DHT22;12087;45.190;5.688;2023-01-15T20:33:43;4.50;99.90
23813;DHT22;12087;45.190;5.688;2023-01-15T20:39:05;4.60;99.90
23813;DHT22;12087;45.190;5.688;2023-01-15T20:44:28;4.70;99.90
23813;DHT22;12087;45.190;5.688;2023-01-15T20:50:13;4.80;99.90
23813;DHT22;12087;45.190;5.688;2023-01-15T20:55:36;4.80;99.90
23813;DHT22;12087;45.190;5.688;2023-01-15T21:01:03;4.90;99.90
23813;DHT22;12087;45.190;5.688;2023-01-15T21:06:27;4.80;99.90
23813;DHT22;12087;45.190;5.688;2023-01-15T21:11:50;4.80;99.90
23813;DHT22;12087;45.190;5.688;2023-01-15T21:17:12;4.90;99.90
23813;DHT22;12087;45.190;5.688;2023-01-15T21:22:36;4.90;99.90
23813;DHT22;12087;45.190;5.688;2023-01-15T21:27:58;4.90;99.90
23813;DHT22;12087;45.190;5.688;2023-01-15T21:33:21;4.90;99.90
23813;DHT22;12087;45.190;5.688;2023-01-15T21:38:48;4.80;99.90
23813;DHT22;12087;45.190;5.688;2023-01-15T21:44:12;4.80;99.90
23813;DHT22;12087;45.190;5.688;2023-01-15T21:49:55;4.80;99.90
23813;DHT22;12087;45.190;5.688;2023-01-15T21:55:20;4.80;99.90
23813;DHT22;12087;45.190;5.688;2023-01-15T22:00:42;4.80;99.90
23813;DHT22;12087;45.190;5.688;2023-01-15T22:06:05;4.80;99.90
23813;DHT22;12087;45.190;5.688;2023-01-15T22:11:29;4.70;99.90
23813;DHT22;12087;45.190;5.688;2023-01-15T22:17:05;4.80;99.90
23813;DHT22;12087;45.190;5.688;2023-01-15T22:22:27;4.70;99.90
23813;DHT22;12087;45.190;5.688;2023-01-15T22:27:55;4.70;99.90
23813;DHT22;12087;45.190;5.688;2023-01-15T22:33:17;4.70;99.90
23813;DHT22;12087;45.190;5.688;2023-01-15T22:38:40;4.60;99.90
23813;DHT22;12087;45.190;5.688;2023-01-15T22:44:04;4.50;99.90
23813;DHT22;12087;45.190;5.688;2023-01-15T22:49:27;4.50;99.90
23813;DHT22;12087;45.190;5.688;2023-01-15T22:54:49;4.40;99.90
23813;DHT22;12087;45.190;5.688;2023-01-15T23:00:14;4.40;99.90
23813;DHT22;12087;45.190;5.688;2023-01-15T23:05:37;4.20;99.90
23813;DHT22;12087;45.190;5.688;2023-01-15T23:11:00;4.20;99.90
23813;DHT22;12087;45.190;5.688;2023-01-15T23:16:24;4.20;99.90
23813;DHT22;12087;45.190;5.688;2023-01-15T23:21:46;4.30;99.90
23813;DHT22;12087;45.190;5.688;2023-01-15T23:27:09;4.10;99.90
23813;DHT22;12087;45.190;5.688;2023-01-15T23:32:35;4.10;99.90
23813;DHT22;12087;45.190;5.688;2023-01-15T23:37:59;4.10;99.90
23813;DHT22;12087;45.190;5.688;2023-01-15T23:43:21;4.10;99.90
23813;DHT22;12087;45.190;5.688;2023-01-15T23:49:04;4.10;99.90
23813;DHT22;12087;45.190;5.688;2023-01-15T23:54:27;4.00;99.90
23813;DHT22;12087;45.190;5.688;2023-01-15T23:59:51;4.00;99.90
